Appleton, Washington
Current Conditions -  °F | °C
As of 6:53 PM on Friday 21 Nov 2014 (Local Time) from KDLS Reporting Station
Light Rain Light Rain  
Wind Chill:   Ceiling: 1300
Heat Index:   Visibility: 2mi
Dew Point:   Wind: 0mph
Humidity: 92%   Direction: NA
Pressure: 29.51"   Gusts: NA
Location:  45.81°N, 121.27°W
Report Text: KDLS 220253Z AUTO 00000KT 2SM -RA BR OVC013 02/01 A2951 RMK AO2 SLP996 P0003 60011 T00170006 56046
Loading
Personal Weather Stations






























Interactive Weather Map New forecast layout! Learn more

10-Day Weather Forecast

Advertisements
Track Severe Weather on mobile